createdAt,value
2023-03-01T06:43:09.292Z,100966.41
2023-03-01T06:45:56.901Z,100966.41
2023-03-01T06:48:42.890Z,100973.16
2023-03-01T06:51:28.533Z,100973.03
2023-03-01T06:54:15.573Z,100975.53
2023-03-01T06:57:00.681Z,100973.16
2023-03-01T06:59:45.926Z,100971.16
2023-03-01T07:02:31.566Z,100973.56
2023-03-01T07:05:17.167Z,100977.94
2023-03-01T07:08:03.136Z,100968.38
2023-03-01T07:10:48.224Z,100973.44
2023-03-01T07:13:33.831Z,100975.06
2023-03-01T07:16:20.130Z,100965.53
2023-03-01T07:19:06.460Z,100978.66
2023-03-01T07:21:51.904Z,100968.38
2023-03-01T07:24:37.266Z,100976.78
2023-03-01T07:27:22.608Z,100980.09
2023-03-01T07:30:08.730Z,100966.41
2023-03-01T07:32:55.749Z,100973.06
2023-03-01T07:35:41.245Z,100962.66
2023-03-01T07:38:27.260Z,100974.50
2023-03-01T07:41:12.709Z,100970.25
2023-03-01T07:43:58.251Z,100977.03
2023-03-01T07:46:45.672Z,100970.00
2023-03-01T07:49:30.778Z,100970.59
2023-03-01T07:52:16.095Z,100962.00
2023-03-01T07:55:02.001Z,100969.81
2023-03-01T07:57:47.091Z,100960.81
2023-03-01T08:00:32.727Z,100960.91
2023-03-01T08:03:18.205Z,100946.16
2023-03-01T08:06:06.219Z,100965.97
2023-03-01T08:08:51.417Z,100954.81
2023-03-01T08:11:36.846Z,100954.94
2023-03-01T08:14:22.305Z,100941.50
2023-03-01T08:17:07.793Z,100970.34
2023-03-01T08:19:53.398Z,100963.03
2023-03-01T08:22:38.350Z,100954.41
2023-03-01T08:25:24.014Z,100950.97
2023-03-01T08:28:09.550Z,100931.87
2023-03-01T08:30:54.667Z,100950.38
2023-03-01T08:33:42.557Z,100940.59
2023-03-01T08:36:30.446Z,100946.31
2023-03-01T08:39:20.300Z,100933.06
2023-03-01T08:42:05.950Z,100939.56
2023-03-01T08:44:52.122Z,100951.00
2023-03-01T08:47:38.292Z,100946.31
2023-03-01T08:50:25.540Z,100943.91
2023-03-01T08:53:11.341Z,100932.78
2023-03-01T08:56:01.565Z,100934.53
2023-03-01T08:58:48.400Z,100936.81
2023-03-01T09:01:35.880Z,100939.09
2023-03-01T09:04:22.345Z,100939.63
2023-03-01T09:07:08.311Z,100956.84
2023-03-01T09:09:56.287Z,100940.59
2023-03-01T09:12:43.548Z,100933.47
2023-03-01T09:15:31.157Z,100948.87
2023-03-01T09:18:16.642Z,100940.06
2023-03-01T09:21:08.227Z,100945.78
2023-03-01T09:23:57.414Z,100952.00
2023-03-01T09:26:43.304Z,100967.91
2023-03-01T09:29:29.245Z,100962.69
2023-03-01T09:32:15.177Z,100958.31
2023-03-01T09:35:04.846Z,100958.69
2023-03-01T09:37:51.456Z,100963.97
2023-03-01T09:40:39.790Z,100949.28
2023-03-01T09:44:07.530Z,100962.19
2023-03-01T09:46:53.392Z,100966.97
2023-03-01T09:49:42.773Z,100956.66
2023-03-01T09:52:46.060Z,100961.88
2023-03-01T09:55:36.546Z,100952.28
2023-03-01T09:58:44.188Z,100947.69
2023-03-01T10:01:37.103Z,100937.28
2023-03-01T10:04:43.085Z,100944.22
2023-03-01T10:07:41.161Z,100942.09
2023-03-01T10:10:37.545Z,100936.16
2023-03-01T10:14:06.264Z,100931.78
2023-03-01T10:17:26.005Z,100929.25
2023-03-01T10:20:23.611Z,100927.84
2023-03-01T10:23:11.146Z,100932.78
2023-03-01T10:26:24.583Z,100919.38
2023-03-01T10:29:12.110Z,100923.25
2023-03-01T10:31:57.285Z,100911.22
2023-03-01T10:34:45.170Z,100904.56
2023-03-01T10:38:10.300Z,100911.84
2023-03-01T10:41:00.174Z,100903.03
2023-03-01T10:43:47.652Z,100906.62
2023-03-01T10:46:35.501Z,100904.94
2023-03-01T10:49:26.688Z,100874.25
2023-03-01T10:52:19.784Z,100869.47
2023-03-01T10:55:14.368Z,100855.94
2023-03-01T10:58:23.439Z,100878.53
2023-03-01T11:01:18.543Z,100860.09
2023-03-01T11:04:17.397Z,100840.78
2023-03-01T11:07:03.536Z,100849.16
2023-03-01T11:09:48.916Z,100842.28
2023-03-01T11:12:35.985Z,100854.06
2023-03-01T11:15:25.354Z,100830.25
2023-03-01T11:18:26.608Z,100833.37
2023-03-01T11:21:17.251Z,100826.09
2023-03-01T11:24:04.509Z,100809.53
2023-03-01T11:26:54.203Z,100804.47
2023-03-01T11:29:57.547Z,100816.03
2023-03-01T11:32:48.912Z,100806.87
2023-03-01T11:35:39.488Z,100800.91
2023-03-01T11:38:27.411Z,100799.03
2023-03-01T11:41:23.046Z,100805.78
2023-03-01T11:44:11.358Z,100807.75
2023-03-01T11:47:09.373Z,100810.84
2023-03-01T11:50:20.760Z,100801.41
2023-03-01T11:53:38.652Z,100801.97
2023-03-01T11:56:44.128Z,100797.19
2023-03-01T11:59:38.744Z,100779.31
2023-03-01T12:02:36.623Z,100775.34
2023-03-01T12:05:36.331Z,100788.34
2023-03-01T12:08:37.268Z,100788.38
2023-03-01T12:11:58.551Z,100786.00
2023-03-01T12:14:57.884Z,100780.25
2023-03-01T12:18:02.115Z,100770.44
2023-03-01T12:20:52.041Z,100762.56
2023-03-01T12:23:43.353Z,100762.81
2023-03-01T12:26:34.934Z,100754.97
2023-03-01T12:29:34.134Z,100761.03
2023-03-01T12:32:25.475Z,100762.25
2023-03-01T12:35:11.049Z,100757.31
2023-03-01T12:38:15.029Z,100754.94
2023-03-01T12:41:31.325Z,100751.09
2023-03-01T12:44:25.529Z,100750.78
2023-03-01T12:47:42.859Z,100736.88
2023-03-01T12:50:38.449Z,100739.56
2023-03-01T12:53:29.714Z,100741.41
2023-03-01T12:56:20.991Z,100741.00
2023-03-01T12:59:32.963Z,100753.50
2023-03-01T13:02:36.830Z,100736.56
2023-03-01T13:05:31.509Z,100743.38
2023-03-01T13:08:32.083Z,100733.81
2023-03-01T13:11:20.952Z,100724.78
2023-03-01T13:14:24.190Z,100701.09
2023-03-01T13:17:31.029Z,100701.37
2023-03-01T13:20:19.167Z,100701.03
2023-03-01T13:23:08.556Z,100695.97
2023-03-01T13:25:59.890Z,100698.41
2023-03-01T13:28:45.135Z,100688.47
2023-03-01T13:31:30.097Z,100689.88
2023-03-01T13:34:41.358Z,100686.59
